Time,TemperatureF,DewpointF,PressureIn,WindDirection,WindDirectionDegrees,WindSpeedMPH,WindSpeedGustMPH,Humidity,HourlyPrecipIn,Conditions,Clouds,dailyrainin,SoftwareType,DateUTC
2013-01-09 00:02:00,35.8,24.8,24.04,SW,225,30.0,36.0,64,0.00,,,0.00,meteohub,2013-01-09 07:02:00,
2013-01-09 00:07:00,35.8,24.8,24.04,SW,225,30.0,35.0,64,0.00,,,0.00,meteohub,2013-01-09 07:07:00,
2013-01-09 00:12:00,36.1,24.8,24.04,SW,225,27.0,34.0,63,0.00,,,0.00,meteohub,2013-01-09 07:12:00,
2013-01-09 00:17:00,36.0,25.0,24.04,WSW,248,33.0,34.0,64,0.00,,,0.00,meteohub,2013-01-09 07:17:00,
2013-01-09 00:22:00,36.1,25.2,24.03,SW,225,33.0,34.0,64,0.00,,,0.00,meteohub,2013-01-09 07:22:00,
2013-01-09 00:27:00,36.3,25.3,24.03,SW,225,35.0,35.0,64,0.00,,,0.00,meteohub,2013-01-09 07:27:00,
2013-01-09 00:32:00,36.7,25.3,24.03,SW,225,38.0,38.0,63,0.00,,,0.00,meteohub,2013-01-09 07:32:00,
2013-01-09 00:37:00,36.1,25.2,24.03,SW,225,33.0,42.0,64,0.00,,,0.00,meteohub,2013-01-09 07:37:00,
2013-01-09 00:42:00,36.3,25.3,24.03,SW,225,29.0,42.0,64,0.00,,,0.00,meteohub,2013-01-09 07:42:00,
2013-01-09 00:47:00,36.5,25.5,24.03,SW,225,34.0,42.0,64,0.00,,,0.00,meteohub,2013-01-09 07:47:00,
2013-01-09 00:52:00,36.3,25.3,24.03,SW,225,28.0,36.0,64,0.00,,,0.00,meteohub,2013-01-09 07:52:00,
2013-01-09 00:57:00,35.8,25.2,24.03,SW,225,27.0,36.0,65,0.00,,,0.00,meteohub,2013-01-09 07:57:00,
2013-01-09 01:02:00,36.0,25.3,24.03,SW,225,33.0,35.0,65,0.00,,,0.00,meteohub,2013-01-09 08:02:00,
2013-01-09 01:07:00,36.0,25.3,24.03,SW,225,33.0,35.0,65,0.00,,,0.00,meteohub,2013-01-09 08:07:00,
2013-01-09 01:12:00,35.2,25.0,24.03,SW,225,29.0,34.0,66,0.00,,,0.00,meteohub,2013-01-09 08:12:00,
2013-01-09 01:17:00,34.2,24.6,24.04,SW,225,23.0,33.0,68,0.00,,,0.00,meteohub,2013-01-09 08:17:00,
2013-01-09 01:22:00,33.6,25.2,24.04,SSW,203,26.0,33.0,71,0.00,,,0.00,meteohub,2013-01-09 08:22:00,
2013-01-09 01:27:00,33.1,25.0,24.04,SW,225,23.0,33.0,72,0.00,,,0.00,meteohub,2013-01-09 08:27:00,
2013-01-09 01:32:00,33.3,25.2,24.04,SW,225,25.0,27.0,72,0.00,,,0.00,meteohub,2013-01-09 08:32:00,
2013-01-09 01:42:00,33.4,25.0,24.05,SSW,203,19.0,25.0,71,0.00,,,0.00,meteohub,2013-01-09 08:42:00,
2013-01-09 01:47:00,33.6,25.2,24.05,SSW,203,19.0,25.0,71,0.00,,,0.00,meteohub,2013-01-09 08:47:00,
2013-01-09 01:52:00,33.4,25.3,24.05,SW,225,20.0,25.0,72,0.00,,,0.00,meteohub,2013-01-09 08:52:00,
2013-01-09 01:57:00,33.4,25.3,24.05,SSW,203,17.0,24.0,72,0.00,,,0.00,meteohub,2013-01-09 08:57:00,
2013-01-09 02:02:00,33.8,25.0,24.05,SSW,203,20.0,21.0,70,0.00,,,0.00,meteohub,2013-01-09 09:02:00,
2013-01-09 02:07:00,33.8,25.0,24.05,SSW,203,20.0,21.0,70,0.00,,,0.00,meteohub,2013-01-09 09:07:00,
2013-01-09 02:12:00,34.9,25.0,24.05,SW,225,22.0,22.0,67,0.00,,,0.00,meteohub,2013-01-09 09:12:00,
2013-01-09 02:17:00,34.5,25.0,24.04,SSW,203,24.0,24.0,68,0.00,,,0.00,meteohub,2013-01-09 09:17:00,
2013-01-09 02:22:00,33.8,24.8,24.04,SSW,203,20.0,27.0,69,0.00,,,0.00,meteohub,2013-01-09 09:22:00,
2013-01-09 02:27:00,33.8,25.0,24.04,SSW,203,23.0,27.0,70,0.00,,,0.00,meteohub,2013-01-09 09:27:00,
2013-01-09 02:32:00,33.6,24.8,24.04,South,180,23.0,27.0,70,0.00,,,0.00,meteohub,2013-01-09 09:32:00,
2013-01-09 02:37:00,33.4,25.0,24.04,South,180,23.0,25.0,71,0.00,,,0.00,meteohub,2013-01-09 09:37:00,
2013-01-09 02:42:00,33.3,24.8,24.05,South,180,25.0,25.0,71,0.00,,,0.00,meteohub,2013-01-09 09:42:00,
2013-01-09 02:47:00,34.0,24.8,24.04,South,180,26.0,26.0,69,0.00,,,0.00,meteohub,2013-01-09 09:47:00,
2013-01-09 02:52:00,33.6,24.6,24.04,South,180,26.0,27.0,69,0.00,,,0.00,meteohub,2013-01-09 09:52:00,
2013-01-09 02:57:00,33.4,24.8,24.04,South,180,27.0,28.0,70,0.00,,,0.00,meteohub,2013-01-09 09:57:00,
2013-01-09 03:02:00,33.3,24.6,24.04,South,180,21.0,28.0,70,0.00,,,0.00,meteohub,2013-01-09 10:02:00,
2013-01-09 03:07:00,33.3,24.6,24.05,South,180,21.0,28.0,70,0.00,,,0.00,meteohub,2013-01-09 10:07:00,
2013-01-09 03:12:00,34.7,24.1,24.04,South,180,21.0,27.0,65,0.00,,,0.00,meteohub,2013-01-09 10:12:00,
2013-01-09 03:17:00,35.4,24.1,24.04,South,180,25.0,27.0,63,0.00,,,0.00,meteohub,2013-01-09 10:17:00,
2013-01-09 03:22:00,36.5,23.9,24.03,South,180,28.0,35.0,60,0.00,,,0.00,meteohub,2013-01-09 10:22:00,
2013-01-09 03:27:00,36.0,23.9,24.04,South,180,29.0,36.0,61,0.00,,,0.00,meteohub,2013-01-09 10:27:00,
2013-01-09 03:32:00,35.8,23.7,24.03,South,180,31.0,36.0,61,0.00,,,0.00,meteohub,2013-01-09 10:32:00,
2013-01-09 03:37:00,35.2,23.9,24.04,South,180,33.0,36.0,63,0.00,,,0.00,meteohub,2013-01-09 10:37:00,
2013-01-09 03:42:00,35.2,23.9,24.03,South,180,38.0,38.0,63,0.00,,,0.00,meteohub,2013-01-09 10:42:00,
2013-01-09 03:47:00,35.4,23.7,24.03,South,180,36.0,38.0,62,0.00,,,0.00,meteohub,2013-01-09 10:47:00,
2013-01-09 03:52:00,35.2,23.9,24.02,South,180,37.0,38.0,63,0.00,,,0.00,meteohub,2013-01-09 10:52:00,
2013-01-09 03:57:00,35.2,23.5,24.03,South,180,37.0,40.0,62,0.00,,,0.00,meteohub,2013-01-09 10:57:00,
2013-01-09 04:02:00,35.8,23.7,24.03,South,180,34.0,42.0,61,0.00,,,0.00,meteohub,2013-01-09 11:02:00,
2013-01-09 04:07:00,35.8,23.7,24.02,South,180,34.0,42.0,61,0.00,,,0.00,meteohub,2013-01-09 11:07:00,
2013-01-09 04:12:00,33.8,24.1,24.02,SSW,203,28.0,42.0,67,0.00,,,0.00,meteohub,2013-01-09 11:12:00,
2013-01-09 04:22:00,33.4,23.7,24.01,South,180,32.0,34.0,67,0.00,,,0.00,meteohub,2013-01-09 11:22:00,
2013-01-09 04:27:00,33.6,23.9,24.03,South,180,27.0,36.0,67,0.00,,,0.00,meteohub,2013-01-09 11:27:00,
2013-01-09 04:32:00,33.4,23.7,24.05,SSW,203,27.0,36.0,67,0.00,,,0.00,meteohub,2013-01-09 11:32:00,
2013-01-09 04:37:00,33.8,23.4,24.05,South,180,23.0,36.0,65,0.00,,,0.00,meteohub,2013-01-09 11:37:00,
2013-01-09 04:42:00,33.6,23.5,24.05,South,180,26.0,30.0,66,0.00,,,0.00,meteohub,2013-01-09 11:42:00,
2013-01-09 04:47:00,33.8,23.4,24.05,South,180,18.0,30.0,65,0.00,,,0.00,meteohub,2013-01-09 11:47:00,
2013-01-09 04:52:00,34.2,23.2,24.05,South,180,23.0,27.0,64,0.00,,,0.00,meteohub,2013-01-09 11:52:00,
2013-01-09 04:57:00,34.0,23.0,24.04,SW,225,23.0,29.0,64,0.00,,,0.00,meteohub,2013-01-09 11:57:00,
2013-01-09 05:02:00,33.6,23.2,24.04,SSW,203,22.0,29.0,65,0.00,,,0.00,meteohub,2013-01-09 12:02:00,
2013-01-09 05:07:00,33.6,23.2,24.04,SSW,203,22.0,29.0,65,0.00,,,0.00,meteohub,2013-01-09 12:07:00,
2013-01-09 05:12:00,33.4,23.4,24.03,SW,225,23.0,26.0,66,0.00,,,0.00,meteohub,2013-01-09 12:12:00,
2013-01-09 05:17:00,33.3,23.2,24.03,South,180,23.0,26.0,66,0.00,,,0.00,meteohub,2013-01-09 12:17:00,
2013-01-09 05:22:00,33.4,23.4,24.03,SW,225,24.0,26.0,66,0.00,,,0.00,meteohub,2013-01-09 12:22:00,
2013-01-09 05:27:00,33.8,23.0,24.03,SW,225,29.0,29.0,64,0.00,,,0.00,meteohub,2013-01-09 12:27:00,
2013-01-09 05:32:00,34.2,23.2,24.04,SW,225,27.0,30.0,64,0.00,,,0.00,meteohub,2013-01-09 12:32:00,
2013-01-09 05:37:00,34.5,23.5,24.04,SW,225,25.0,30.0,64,0.00,,,0.00,meteohub,2013-01-09 12:37:00,
2013-01-09 05:42:00,34.0,23.5,24.04,SW,225,21.0,30.0,65,0.00,,,0.00,meteohub,2013-01-09 12:42:00,
2013-01-09 05:47:00,33.8,23.4,24.04,SW,225,25.0,30.0,65,0.00,,,0.00,meteohub,2013-01-09 12:47:00,
2013-01-09 05:52:00,33.8,23.4,24.04,South,180,24.0,30.0,65,0.00,,,0.00,meteohub,2013-01-09 12:52:00,
2013-01-09 05:57:00,33.4,23.4,24.04,South,180,23.0,26.0,66,0.00,,,0.00,meteohub,2013-01-09 12:57:00,
2013-01-09 06:02:00,33.4,23.4,24.04,South,180,26.0,26.0,66,0.00,,,0.00,meteohub,2013-01-09 13:02:00,
2013-01-09 06:07:00,33.4,23.4,24.04,South,180,26.0,26.0,66,0.00,,,0.00,meteohub,2013-01-09 13:07:00,
2013-01-09 06:12:00,33.3,23.2,24.04,South,180,25.0,26.0,66,0.00,,,0.00,meteohub,2013-01-09 13:12:00,
2013-01-09 06:17:00,32.9,23.2,24.04,South,180,20.0,27.0,67,0.00,,,0.00,meteohub,2013-01-09 13:17:00,
2013-01-09 06:22:00,33.3,23.2,24.04,South,180,23.0,27.0,66,0.00,,,0.00,meteohub,2013-01-09 13:22:00,
2013-01-09 06:27:00,33.3,23.2,24.04,South,180,22.0,27.0,66,0.00,,,0.00,meteohub,2013-01-09 13:27:00,
2013-01-09 06:32:00,33.8,23.0,24.04,South,180,26.0,29.0,64,0.00,,,0.00,meteohub,2013-01-09 13:32:00,
2013-01-09 06:37:00,33.4,23.0,24.04,South,180,25.0,30.0,65,0.00,,,0.00,meteohub,2013-01-09 13:37:00,
2013-01-09 06:42:00,33.3,23.2,24.04,South,180,21.0,30.0,66,0.00,,,0.00,meteohub,2013-01-09 13:42:00,
2013-01-09 06:47:00,33.1,23.0,24.04,South,180,22.0,30.0,66,0.00,,,0.00,meteohub,2013-01-09 13:47:00,
2013-01-09 06:52:00,33.1,23.0,24.04,South,180,26.0,26.0,66,0.00,,,0.00,meteohub,2013-01-09 13:52:00,
2013-01-09 06:57:00,33.4,22.6,24.04,South,180,26.0,27.0,64,0.00,,,0.00,meteohub,2013-01-09 13:57:00,
2013-01-09 07:02:00,33.6,22.8,24.04,South,180,27.0,34.0,64,0.00,,,0.00,meteohub,2013-01-09 14:02:00,
2013-01-09 07:07:00,33.6,22.8,24.03,South,180,27.0,34.0,64,0.00,,,0.00,meteohub,2013-01-09 14:07:00,
2013-01-09 07:12:00,33.1,22.6,24.04,South,180,29.0,34.0,65,0.00,,,0.00,meteohub,2013-01-09 14:12:00,
2013-01-09 07:17:00,32.7,22.6,24.03,South,180,27.0,31.0,66,0.00,,,0.00,meteohub,2013-01-09 14:17:00,
2013-01-09 07:22:00,32.7,22.6,24.03,South,180,26.0,31.0,66,0.00,,,0.00,meteohub,2013-01-09 14:22:00,
2013-01-09 07:27:00,32.5,22.5,24.02,South,180,31.0,33.0,66,0.00,,,0.00,meteohub,2013-01-09 14:27:00,
2013-01-09 07:32:00,32.5,22.5,24.03,South,180,31.0,37.0,66,0.00,,,0.00,meteohub,2013-01-09 14:32:00,
2013-01-09 07:37:00,32.9,22.5,24.03,SSW,203,30.0,37.0,65,0.00,,,0.00,meteohub,2013-01-09 14:37:00,
2013-01-09 07:42:00,32.7,21.9,24.04,SSW,203,29.0,37.0,64,0.00,,,0.00,meteohub,2013-01-09 14:42:00,
2013-01-09 07:47:00,33.1,22.3,24.04,South,180,27.0,35.0,64,0.00,,,0.00,meteohub,2013-01-09 14:47:00,
2013-01-09 07:52:00,32.9,22.1,24.04,South,180,27.0,36.0,64,0.00,,,0.00,meteohub,2013-01-09 14:52:00,
2013-01-09 07:57:00,32.9,22.1,24.04,South,180,29.0,36.0,64,0.00,,,0.00,meteohub,2013-01-09 14:57:00,
2013-01-09 08:02:00,32.9,22.1,24.04,South,180,30.0,36.0,64,0.00,,,0.00,meteohub,2013-01-09 15:02:00,
2013-01-09 08:07:00,32.9,22.1,24.03,South,180,30.0,31.0,64,0.00,,,0.00,meteohub,2013-01-09 15:07:00,
2013-01-09 08:12:00,33.1,22.3,24.04,South,180,30.0,31.0,64,0.00,,,0.00,meteohub,2013-01-09 15:12:00,
2013-01-09 08:17:00,33.1,21.9,24.03,SSW,203,33.0,33.0,63,0.00,,,0.00,meteohub,2013-01-09 15:17:00,
2013-01-09 08:22:00,32.9,21.7,24.03,South,180,34.0,34.0,63,0.00,,,0.00,meteohub,2013-01-09 15:22:00,
2013-01-09 08:27:00,32.7,21.9,24.02,South,180,34.0,34.0,64,0.00,,,0.00,meteohub,2013-01-09 15:27:00,
2013-01-09 08:32:00,33.4,21.7,24.02,South,180,33.0,34.0,62,0.00,,,0.00,meteohub,2013-01-09 15:32:00,
2013-01-09 08:37:00,33.1,21.9,24.02,SW,225,33.0,36.0,63,0.00,,,0.00,meteohub,2013-01-09 15:37:00,
2013-01-09 08:47:00,33.3,22.1,24.02,SSW,203,31.0,37.0,63,0.00,,,0.00,meteohub,2013-01-09 15:47:00,
2013-01-09 08:52:00,33.1,21.9,24.02,SSW,203,33.0,37.0,63,0.00,,,0.00,meteohub,2013-01-09 15:52:00,
2013-01-09 08:57:00,33.3,22.1,24.02,SW,225,32.0,37.0,63,0.00,,,0.00,meteohub,2013-01-09 15:57:00,
2013-01-09 09:02:00,33.4,21.7,24.02,SW,225,34.0,34.0,62,0.00,,,0.00,meteohub,2013-01-09 16:02:00,
2013-01-09 09:07:00,33.4,21.7,24.02,SW,225,34.0,34.0,62,0.00,,,0.00,meteohub,2013-01-09 16:07:00,
2013-01-09 09:12:00,33.3,22.1,24.02,SW,225,28.0,34.0,63,0.00,,,0.00,meteohub,2013-01-09 16:12:00,
2013-01-09 09:17:00,33.8,21.7,24.02,South,180,31.0,34.0,61,0.00,,,0.00,meteohub,2013-01-09 16:17:00,
2013-01-09 09:22:00,33.8,21.7,24.01,South,180,29.0,35.0,61,0.00,,,0.00,meteohub,2013-01-09 16:22:00,
2013-01-09 09:27:00,34.0,21.9,24.01,SSW,203,33.0,35.0,61,0.00,,,0.00,meteohub,2013-01-09 16:27:00,
2013-01-09 09:32:00,34.2,21.7,24.00,South,180,31.0,35.0,60,0.00,,,0.00,meteohub,2013-01-09 16:32:00,
2013-01-09 09:42:00,35.1,22.1,24.00,SSW,203,32.0,34.0,59,0.00,,,0.00,meteohub,2013-01-09 16:42:00,
2013-01-09 09:47:00,35.1,22.1,24.01,South,180,30.0,37.0,59,0.00,,,0.00,meteohub,2013-01-09 16:47:00,
2013-01-09 09:57:00,35.6,22.3,24.00,South,180,30.0,40.0,58,0.00,,,0.00,meteohub,2013-01-09 16:57:00,
2013-01-09 10:02:00,35.6,21.9,24.00,South,180,37.0,40.0,57,0.00,,,0.00,meteohub,2013-01-09 17:02:00,
2013-01-09 10:07:00,35.6,21.9,24.00,South,180,37.0,40.0,57,0.00,,,0.00,meteohub,2013-01-09 17:07:00,
2013-01-09 10:12:00,36.0,21.7,24.00,South,180,36.0,37.0,56,0.00,,,0.00,meteohub,2013-01-09 17:12:00,
2013-01-09 10:17:00,36.0,22.3,24.00,South,180,33.0,37.0,57,0.00,,,0.00,meteohub,2013-01-09 17:17:00,
2013-01-09 10:22:00,36.1,22.5,23.99,South,180,33.0,37.0,57,0.00,,,0.00,meteohub,2013-01-09 17:22:00,
2013-01-09 10:27:00,36.0,22.6,23.99,South,180,35.0,38.0,58,0.00,,,0.00,meteohub,2013-01-09 17:27:00,
2013-01-09 10:32:00,36.0,21.7,23.98,South,180,39.0,39.0,56,0.00,,,0.00,meteohub,2013-01-09 17:32:00,
2013-01-09 10:37:00,36.7,22.5,23.98,South,180,36.0,39.0,56,0.00,,,0.00,meteohub,2013-01-09 17:37:00,
2013-01-09 10:42:00,36.7,22.5,23.97,South,180,34.0,39.0,56,0.00,,,0.00,meteohub,2013-01-09 17:42:00,
2013-01-09 10:47:00,37.4,22.6,23.96,South,180,37.0,39.0,55,0.00,,,0.00,meteohub,2013-01-09 17:47:00,
2013-01-09 10:52:00,37.2,22.5,23.96,South,180,38.0,38.0,55,0.00,,,0.00,meteohub,2013-01-09 17:52:00,
2013-01-09 10:57:00,37.0,22.5,23.96,South,180,37.0,40.0,55,0.00,,,0.00,meteohub,2013-01-09 17:57:00,
2013-01-09 11:02:00,37.0,22.8,23.96,South,180,34.0,40.0,56,0.00,,,0.00,meteohub,2013-01-09 18:02:00,
2013-01-09 11:07:00,37.0,22.8,23.95,South,180,34.0,40.0,56,0.00,,,0.00,meteohub,2013-01-09 18:07:00,
2013-01-09 11:12:00,36.9,22.3,23.94,South,180,43.0,46.0,55,0.00,,,0.00,meteohub,2013-01-09 18:12:00,
2013-01-09 11:17:00,36.9,22.3,23.95,South,180,40.0,46.0,55,0.00,,,0.00,meteohub,2013-01-09 18:17:00,
2013-01-09 11:22:00,36.9,23.0,23.94,South,180,36.0,46.0,57,0.00,,,0.00,meteohub,2013-01-09 18:22:00,
2013-01-09 11:27:00,36.7,22.5,23.94,South,180,39.0,46.0,56,0.00,,,0.00,meteohub,2013-01-09 18:27:00,
2013-01-09 11:32:00,36.7,22.1,23.94,South,180,41.0,43.0,55,0.00,,,0.00,meteohub,2013-01-09 18:32:00,
2013-01-09 11:37:00,37.0,22.8,23.94,South,180,39.0,43.0,56,0.00,,,0.00,meteohub,2013-01-09 18:37:00,
2013-01-09 11:42:00,37.2,22.5,23.94,South,180,34.0,43.0,55,0.00,,,0.00,meteohub,2013-01-09 18:42:00,
2013-01-09 11:47:00,37.6,21.9,23.95,South,180,34.0,41.0,53,0.00,,,0.00,meteohub,2013-01-09 18:47:00,
2013-01-09 11:52:00,37.6,23.4,23.94,South,180,34.0,41.0,56,0.00,,,0.00,meteohub,2013-01-09 18:52:00,
2013-01-09 11:57:00,38.1,21.6,23.94,South,180,43.0,43.0,51,0.00,,,0.00,meteohub,2013-01-09 18:57:00,
2013-01-09 12:02:00,39.0,21.0,23.93,South,180,42.0,43.0,48,0.00,,,0.00,meteohub,2013-01-09 19:02:00,
2013-01-09 12:07:00,39.0,21.0,23.94,South,180,42.0,43.0,48,0.00,,,0.00,meteohub,2013-01-09 19:07:00,
2013-01-09 12:12:00,39.7,20.7,23.93,South,180,34.0,43.0,46,0.00,,,0.00,meteohub,2013-01-09 19:12:00,
2013-01-09 12:17:00,39.4,20.3,23.91,South,180,42.0,43.0,46,0.00,,,0.00,meteohub,2013-01-09 19:17:00,
2013-01-09 12:22:00,39.4,21.4,23.92,SSW,203,41.0,46.0,48,0.00,,,0.00,meteohub,2013-01-09 19:22:00,
2013-01-09 12:27:00,39.6,21.0,23.91,SW,225,43.0,46.0,47,0.00,,,0.00,meteohub,2013-01-09 19:27:00,
2013-01-09 12:32:00,39.6,21.0,23.90,SSW,203,49.0,49.0,47,0.00,,,0.00,meteohub,2013-01-09 19:32:00,
2013-01-09 12:37:00,39.6,21.6,23.91,South,180,42.0,49.0,48,0.00,,,0.00,meteohub,2013-01-09 19:37:00,
2013-01-09 12:42:00,39.6,21.6,23.90,SW,225,42.0,49.0,48,0.00,,,0.00,meteohub,2013-01-09 19:42:00,
2013-01-09 12:47:00,39.6,21.6,23.90,SW,225,42.0,49.0,48,0.00,,,0.00,meteohub,2013-01-09 19:47:00,
2013-01-09 12:52:00,39.4,22.3,23.88,South,180,46.0,50.0,50,0.00,,,0.00,meteohub,2013-01-09 19:52:00,
2013-01-09 12:57:00,40.3,22.1,23.90,SSW,203,40.0,50.0,48,0.00,,,0.00,meteohub,2013-01-09 19:57:00,
2013-01-09 13:02:00,40.1,21.9,23.89,South,180,47.0,50.0,48,0.00,,,0.00,meteohub,2013-01-09 20:02:00,
2013-01-09 13:07:00,40.1,21.9,23.89,South,180,47.0,50.0,48,0.00,,,0.00,meteohub,2013-01-09 20:07:00,
2013-01-09 13:12:00,40.5,21.7,23.88,SW,225,53.0,53.0,47,0.00,,,0.00,meteohub,2013-01-09 20:12:00,
2013-01-09 13:17:00,40.3,22.1,23.89,SSW,203,44.0,53.0,48,0.00,,,0.00,meteohub,2013-01-09 20:17:00,
2013-01-09 13:22:00,39.9,22.3,23.88,SW,225,45.0,53.0,49,0.00,,,0.00,meteohub,2013-01-09 20:22:00,
2013-01-09 13:27:00,40.6,22.5,23.89,SW,225,50.0,53.0,48,0.00,,,0.00,meteohub,2013-01-09 20:27:00,
2013-01-09 13:32:00,40.1,21.9,23.88,SW,225,46.0,50.0,48,0.00,,,0.00,meteohub,2013-01-09 20:32:00,
2013-01-09 13:37:00,40.3,22.6,23.88,SW,225,45.0,50.0,49,0.00,,,0.00,meteohub,2013-01-09 20:37:00,
2013-01-09 13:42:00,40.1,21.9,23.88,SW,225,46.0,53.0,48,0.00,,,0.00,meteohub,2013-01-09 20:42:00,
2013-01-09 13:52:00,40.6,21.9,23.88,SW,225,51.0,55.0,47,0.00,,,0.00,meteohub,2013-01-09 20:52:00,
2013-01-09 13:57:00,40.1,21.9,23.88,SW,225,49.0,55.0,48,0.00,,,0.00,meteohub,2013-01-09 20:57:00,
2013-01-09 14:02:00,40.1,21.9,23.88,SW,225,52.0,52.0,48,0.00,,,0.00,meteohub,2013-01-09 21:02:00,
2013-01-09 14:07:00,40.1,21.9,23.88,SW,225,52.0,52.0,48,0.00,,,0.00,meteohub,2013-01-09 21:07:00,
2013-01-09 14:12:00,39.7,23.2,23.87,South,180,53.0,53.0,51,0.00,,,0.00,meteohub,2013-01-09 21:12:00,
2013-01-09 14:17:00,39.9,23.2,23.88,SW,225,48.0,53.0,51,0.00,,,0.00,meteohub,2013-01-09 21:17:00,
2013-01-09 14:22:00,39.6,23.4,23.89,SW,225,45.0,53.0,52,0.00,,,0.00,meteohub,2013-01-09 21:22:00,
2013-01-09 14:27:00,39.6,23.9,23.88,SW,225,44.0,53.0,53,0.00,,,0.00,meteohub,2013-01-09 21:27:00,
2013-01-09 14:32:00,39.6,23.9,23.88,SW,225,45.0,48.0,53,0.00,,,0.00,meteohub,2013-01-09 21:32:00,
2013-01-09 14:37:00,39.6,23.9,23.88,SW,225,45.0,46.0,53,0.00,,,0.00,meteohub,2013-01-09 21:37:00,
2013-01-09 14:42:00,39.0,23.7,23.89,SW,225,39.0,47.0,54,0.00,,,0.00,meteohub,2013-01-09 21:42:00,
2013-01-09 14:47:00,38.7,23.4,23.89,SW,225,36.0,47.0,54,0.00,,,0.00,meteohub,2013-01-09 21:47:00,
2013-01-09 14:52:00,38.3,23.9,23.89,South,180,36.0,47.0,56,0.00,,,0.00,meteohub,2013-01-09 21:52:00,
2013-01-09 15:02:00,38.5,23.7,23.88,South,180,37.0,41.0,55,0.00,,,0.00,meteohub,2013-01-09 22:02:00,
2013-01-09 15:07:00,38.5,23.7,23.90,South,180,37.0,41.0,55,0.00,,,0.00,meteohub,2013-01-09 22:07:00,
2013-01-09 15:12:00,38.3,24.4,23.89,South,180,34.0,37.0,57,0.00,,,0.00,meteohub,2013-01-09 22:12:00,
2013-01-09 15:17:00,38.1,24.3,23.90,SSW,203,29.0,37.0,57,0.00,,,0.00,meteohub,2013-01-09 22:17:00,
2013-01-09 15:22:00,38.1,24.3,23.89,South,180,32.0,37.0,57,0.00,,,0.00,meteohub,2013-01-09 22:22:00,
2013-01-09 15:27:00,38.1,23.9,23.89,South,180,32.0,36.0,56,0.00,,,0.00,meteohub,2013-01-09 22:27:00,
2013-01-09 15:32:00,38.1,24.3,23.89,South,180,32.0,36.0,57,0.00,,,0.00,meteohub,2013-01-09 22:32:00,
2013-01-09 15:37:00,37.8,23.9,23.89,South,180,34.0,36.0,57,0.00,,,0.00,meteohub,2013-01-09 22:37:00,
2013-01-09 15:42:00,37.4,24.8,23.89,South,180,29.0,36.0,60,0.00,,,0.00,meteohub,2013-01-09 22:42:00,
2013-01-09 15:47:00,37.6,24.6,23.89,South,180,35.0,35.0,59,0.00,,,0.00,meteohub,2013-01-09 22:47:00,
2013-01-09 15:52:00,37.6,24.6,23.89,South,180,34.0,37.0,59,0.00,,,0.00,meteohub,2013-01-09 22:52:00,
2013-01-09 15:57:00,37.4,24.8,23.88,South,180,30.0,37.0,60,0.00,,,0.00,meteohub,2013-01-09 22:57:00,
2013-01-09 16:02:00,37.4,24.4,23.89,South,180,34.0,37.0,59,0.00,,,0.00,meteohub,2013-01-09 23:02:00,
2013-01-09 16:07:00,37.4,24.4,23.88,South,180,34.0,36.0,59,0.00,,,0.00,meteohub,2013-01-09 23:07:00,
2013-01-09 16:12:00,37.0,24.8,23.88,South,180,32.0,35.0,61,0.00,,,0.00,meteohub,2013-01-09 23:12:00,
2013-01-09 16:17:00,36.9,25.0,23.87,South,180,33.0,35.0,62,0.00,,,0.00,meteohub,2013-01-09 23:17:00,
2013-01-09 16:22:00,36.9,25.0,23.88,South,180,30.0,36.0,62,0.00,,,0.00,meteohub,2013-01-09 23:22:00,
2013-01-09 16:27:00,37.0,24.8,23.88,South,180,33.0,36.0,61,0.00,,,0.00,meteohub,2013-01-09 23:27:00,
2013-01-09 16:32:00,36.9,25.0,23.87,South,180,36.0,36.0,62,0.00,,,0.00,meteohub,2013-01-09 23:32:00,
2013-01-09 16:37:00,36.9,24.6,23.86,South,180,38.0,39.0,61,0.00,,,0.00,meteohub,2013-01-09 23:37:00,
2013-01-09 16:42:00,37.0,24.4,23.87,South,180,34.0,40.0,60,0.00,,,0.00,meteohub,2013-01-09 23:42:00,
2013-01-09 16:52:00,37.6,24.1,23.84,South,180,47.0,47.0,58,0.00,,,0.00,meteohub,2013-01-09 23:52:00,
2013-01-09 16:57:00,37.0,24.4,23.85,SSW,203,40.0,47.0,60,0.00,,,0.00,meteohub,2013-01-09 23:57:00,
2013-01-09 17:02:00,37.4,24.4,23.84,South,180,42.0,47.0,59,0.00,,,0.00,meteohub,2013-01-10 00:02:00,
2013-01-09 17:07:00,37.4,24.4,23.83,South,180,42.0,47.0,59,0.00,,,0.00,meteohub,2013-01-10 00:07:00,
2013-01-09 17:12:00,37.4,24.4,23.84,South,180,44.0,50.0,59,0.00,,,0.00,meteohub,2013-01-10 00:12:00,
2013-01-09 17:17:00,37.0,24.1,23.84,South,180,43.0,50.0,59,0.00,,,0.00,meteohub,2013-01-10 00:17:00,
2013-01-09 17:22:00,36.9,24.3,23.85,South,180,41.0,50.0,60,0.00,,,0.00,meteohub,2013-01-10 00:22:00,
2013-01-09 17:27:00,37.0,24.1,23.85,South,180,42.0,46.0,59,0.00,,,0.00,meteohub,2013-01-10 00:27:00,
2013-01-09 17:32:00,37.0,24.1,23.84,South,180,42.0,46.0,59,0.00,,,0.00,meteohub,2013-01-10 00:32:00,
2013-01-09 17:37:00,37.0,23.7,23.84,SSW,203,38.0,46.0,58,0.00,,,0.00,meteohub,2013-01-10 00:37:00,
2013-01-09 17:42:00,36.9,23.9,23.85,SSW,203,38.0,44.0,59,0.00,,,0.00,meteohub,2013-01-10 00:42:00,
2013-01-09 17:47:00,37.0,23.7,23.84,SSW,203,38.0,44.0,58,0.00,,,0.00,meteohub,2013-01-10 00:47:00,
2013-01-09 17:52:00,37.0,23.7,23.84,SSW,203,38.0,43.0,58,0.00,,,0.00,meteohub,2013-01-10 00:52:00,
2013-01-09 17:57:00,37.0,23.7,23.84,South,180,37.0,43.0,58,0.00,,,0.00,meteohub,2013-01-10 00:57:00,
2013-01-09 18:02:00,37.0,23.2,23.84,SSW,203,41.0,43.0,57,0.00,,,0.00,meteohub,2013-01-10 01:02:00,
2013-01-09 18:07:00,37.0,23.2,23.84,SSW,203,41.0,43.0,57,0.00,,,0.00,meteohub,2013-01-10 01:07:00,
2013-01-09 18:12:00,37.2,23.0,23.84,SW,225,36.0,41.0,56,0.00,,,0.00,meteohub,2013-01-10 01:12:00,
2013-01-09 18:17:00,37.2,23.0,23.84,SSW,203,36.0,41.0,56,0.00,,,0.00,meteohub,2013-01-10 01:17:00,
2013-01-09 18:27:00,37.2,23.0,23.83,South,180,40.0,42.0,56,0.00,,,0.00,meteohub,2013-01-10 01:27:00,
2013-01-09 18:37:00,36.9,23.0,23.82,South,180,41.0,42.0,57,0.00,,,0.00,meteohub,2013-01-10 01:37:00,
2013-01-09 18:42:00,36.7,23.7,23.83,South,180,35.0,42.0,59,0.00,,,0.00,meteohub,2013-01-10 01:42:00,
2013-01-09 18:47:00,36.9,23.5,23.83,South,180,33.0,41.0,58,0.00,,,0.00,meteohub,2013-01-10 01:47:00,
2013-01-09 18:52:00,36.9,23.0,23.82,South,180,43.0,43.0,57,0.00,,,0.00,meteohub,2013-01-10 01:52:00,
2013-01-09 18:57:00,37.0,23.2,23.83,South,180,40.0,43.0,57,0.00,,,0.00,meteohub,2013-01-10 01:57:00,
2013-01-09 19:02:00,37.4,22.6,23.83,South,180,43.0,43.0,55,0.00,,,0.00,meteohub,2013-01-10 02:02:00,
2013-01-09 19:07:00,37.4,22.6,23.82,South,180,43.0,43.0,55,0.00,,,0.00,meteohub,2013-01-10 02:07:00,
2013-01-09 19:12:00,36.7,23.7,23.83,South,180,40.0,43.0,59,0.00,,,0.00,meteohub,2013-01-10 02:12:00,
2013-01-09 19:17:00,36.3,23.4,23.83,South,180,36.0,43.0,59,0.00,,,0.00,meteohub,2013-01-10 02:17:00,
2013-01-09 19:22:00,36.3,23.7,23.83,South,180,40.0,43.0,60,0.00,,,0.00,meteohub,2013-01-10 02:22:00,
2013-01-09 19:27:00,36.1,23.2,23.82,South,180,42.0,42.0,59,0.00,,,0.00,meteohub,2013-01-10 02:27:00,
2013-01-09 19:32:00,36.1,23.5,23.82,South,180,39.0,43.0,60,0.00,,,0.00,meteohub,2013-01-10 02:32:00,
2013-01-09 19:37:00,36.1,23.2,23.83,South,180,37.0,43.0,59,0.00,,,0.00,meteohub,2013-01-10 02:37:00,
2013-01-09 19:42:00,36.1,23.5,23.83,SSW,203,40.0,43.0,60,0.00,,,0.00,meteohub,2013-01-10 02:42:00,
2013-01-09 19:47:00,36.3,23.4,23.82,South,180,43.0,43.0,59,0.00,,,0.00,meteohub,2013-01-10 02:47:00,
2013-01-09 19:52:00,36.0,23.4,23.82,SSW,203,38.0,43.0,60,0.00,,,0.00,meteohub,2013-01-10 02:52:00,
2013-01-09 19:57:00,35.8,23.7,23.82,South,180,36.0,43.0,61,0.00,,,0.00,meteohub,2013-01-10 02:57:00,
2013-01-09 20:02:00,35.8,23.7,23.82,South,180,36.0,43.0,61,0.00,,,0.00,meteohub,2013-01-10 03:02:00,
2013-01-09 20:07:00,35.8,23.7,23.83,South,180,36.0,39.0,61,0.00,,,0.00,meteohub,2013-01-10 03:07:00,
2013-01-09 20:12:00,35.8,23.7,23.83,South,180,34.0,39.0,61,0.00,,,0.00,meteohub,2013-01-10 03:12:00,
2013-01-09 20:22:00,35.6,23.5,23.82,South,180,30.0,39.0,61,0.00,,,0.00,meteohub,2013-01-10 03:22:00,
2013-01-09 20:27:00,35.6,23.5,23.82,South,180,30.0,36.0,61,0.00,,,0.00,meteohub,2013-01-10 03:27:00,
2013-01-09 20:32:00,35.4,23.7,23.83,South,180,30.0,36.0,62,0.00,,,0.00,meteohub,2013-01-10 03:32:00,
2013-01-09 20:37:00,35.6,23.9,23.83,South,180,27.0,34.0,62,0.00,,,0.00,meteohub,2013-01-10 03:37:00,
2013-01-09 20:42:00,35.8,23.7,23.82,South,180,29.0,34.0,61,0.00,,,0.00,meteohub,2013-01-10 03:42:00,
2013-01-09 20:47:00,36.0,23.0,23.82,South,180,31.0,34.0,59,0.00,,,0.00,meteohub,2013-01-10 03:47:00,
2013-01-09 20:52:00,36.5,22.6,23.82,South,180,34.0,34.0,57,0.00,,,0.00,meteohub,2013-01-10 03:52:00,
2013-01-09 20:57:00,37.2,22.5,23.82,SW,225,35.0,41.0,55,0.00,,,0.00,meteohub,2013-01-10 03:57:00,
2013-01-09 21:02:00,36.9,22.6,23.82,South,180,38.0,43.0,56,0.00,,,0.00,meteohub,2013-01-10 04:02:00,
2013-01-09 21:12:00,37.0,22.5,23.82,South,180,40.0,43.0,55,0.00,,,0.00,meteohub,2013-01-10 04:12:00,
2013-01-09 21:17:00,37.0,22.5,23.82,SSW,203,34.0,40.0,55,0.00,,,0.00,meteohub,2013-01-10 04:17:00,
2013-01-09 21:22:00,37.0,22.5,23.82,SW,225,34.0,40.0,55,0.00,,,0.00,meteohub,2013-01-10 04:22:00,
2013-01-09 21:27:00,37.0,22.8,23.83,South,180,32.0,40.0,56,0.00,,,0.00,meteohub,2013-01-10 04:27:00,
2013-01-09 21:32:00,37.0,22.8,23.83,SSW,203,30.0,40.0,56,0.00,,,0.00,meteohub,2013-01-10 04:32:00,
2013-01-09 21:37:00,37.0,22.8,23.82,SW,225,30.0,40.0,56,0.00,,,0.00,meteohub,2013-01-10 04:37:00,
2013-01-09 21:42:00,37.0,22.8,23.83,SW,225,26.0,34.0,56,0.00,,,0.00,meteohub,2013-01-10 04:42:00,
2013-01-09 21:47:00,37.2,22.5,23.83,SSW,203,30.0,31.0,55,0.00,,,0.00,meteohub,2013-01-10 04:47:00,
2013-01-09 21:52:00,37.4,22.3,23.82,SW,225,30.0,32.0,54,0.00,,,0.00,meteohub,2013-01-10 04:52:00,
2013-01-09 21:57:00,37.4,22.3,23.83,SW,225,30.0,36.0,54,0.00,,,0.00,meteohub,2013-01-10 04:57:00,
2013-01-09 22:02:00,37.4,22.3,23.82,SSW,203,31.0,36.0,54,0.00,,,0.00,meteohub,2013-01-10 05:02:00,
2013-01-09 22:07:00,37.4,22.3,23.82,SSW,203,31.0,36.0,54,0.00,,,0.00,meteohub,2013-01-10 05:07:00,
2013-01-09 22:12:00,37.2,22.1,23.82,South,180,27.0,33.0,54,0.00,,,0.00,meteohub,2013-01-10 05:12:00,
2013-01-09 22:17:00,37.0,22.5,23.82,NE,45,27.0,33.0,55,0.00,,,0.00,meteohub,2013-01-10 05:17:00,
2013-01-09 22:22:00,36.9,21.7,23.82,SW,225,28.0,33.0,54,0.00,,,0.00,meteohub,2013-01-10 05:22:00,
2013-01-09 22:27:00,36.9,22.3,23.81,SSW,203,28.0,31.0,55,0.00,,,0.00,meteohub,2013-01-10 05:27:00,
2013-01-09 22:32:00,37.2,22.1,23.82,South,180,30.0,31.0,54,0.00,,,0.00,meteohub,2013-01-10 05:32:00,
2013-01-09 22:37:00,37.2,22.1,23.81,South,180,28.0,31.0,54,0.00,,,0.00,meteohub,2013-01-10 05:37:00,
2013-01-09 22:42:00,37.0,21.9,23.81,South,180,28.0,31.0,54,0.00,,,0.00,meteohub,2013-01-10 05:42:00,
2013-01-09 22:47:00,36.3,23.0,23.81,South,180,22.0,30.0,58,0.00,,,0.00,meteohub,2013-01-10 05:47:00,
2013-01-09 22:52:00,36.5,22.3,23.81,South,180,24.0,30.0,56,0.00,,,0.00,meteohub,2013-01-10 05:52:00,
2013-01-09 22:57:00,35.8,22.5,23.81,South,180,21.0,30.0,58,0.00,,,0.00,meteohub,2013-01-10 05:57:00,
2013-01-09 23:02:00,35.4,23.0,23.81,South,180,18.0,27.0,60,0.00,,,0.00,meteohub,2013-01-10 06:02:00,
2013-01-09 23:07:00,35.4,23.0,23.81,South,180,18.0,26.0,60,0.00,,,0.00,meteohub,2013-01-10 06:07:00,
2013-01-09 23:12:00,35.2,22.8,23.81,South,180,17.0,21.0,60,0.00,,,0.00,meteohub,2013-01-10 06:12:00,
2013-01-09 23:17:00,35.2,22.8,23.81,South,180,18.0,21.0,60,0.00,,,0.00,meteohub,2013-01-10 06:17:00,
2013-01-09 23:22:00,34.9,22.8,23.80,South,180,18.0,21.0,61,0.00,,,0.00,meteohub,2013-01-10 06:22:00,
2013-01-09 23:27:00,35.4,22.5,23.80,South,180,23.0,26.0,59,0.00,,,0.00,meteohub,2013-01-10 06:27:00,
2013-01-09 23:32:00,36.1,21.9,23.79,South,180,27.0,27.0,56,0.00,,,0.00,meteohub,2013-01-10 06:32:00,
2013-01-09 23:37:00,36.0,22.3,23.79,South,180,27.0,29.0,57,0.00,,,0.00,meteohub,2013-01-10 06:37:00,
2013-01-09 23:42:00,35.6,22.6,23.80,South,180,27.0,30.0,59,0.00,,,0.00,meteohub,2013-01-10 06:42:00,
2013-01-09 23:47:00,35.4,22.5,23.79,South,180,27.0,30.0,59,0.00,,,0.00,meteohub,2013-01-10 06:47:00,
2013-01-09 23:52:00,35.4,22.5,23.79,South,180,23.0,30.0,59,0.00,,,0.00,meteohub,2013-01-10 06:52:00,
2013-01-09 23:57:00,35.4,22.1,23.78,South,180,25.0,27.0,58,0.00,,,0.00,meteohub,2013-01-10 06:57:00,